KSSI

Details ICAO KSSI (SSI)
Name MALCOLM MCKINNON
Region United States
Timezone America/New_York (UTC-5.0)
Plans Departing 19
Arriving 19
Stats Elevation 19 ft / 6 m (AMSL)
Location 31.151867° -81.390263°
Runways 2
Magnetic Variation 6.757° W
Sunrise 2017-12-17 12:19:20 UTC / 2017-12-17 07:19:20 Local
Sunset 2017-12-17 22:26:59 UTC / 2017-12-17 17:26:59 Local
Advertisement - Login to hide

Runways

ID Width Length Bearing (true) Bearing (mag) Surface Threshold Offset Overrun Length
04 100 ft / 30 m 5,808 ft / 1,770 m 35.96° 42.72° Asphalt 1,000 ft / 305 m 0 ft / 0 m
16 75 ft / 23 m 3,320 ft / 1,012 m 154.23° 160.99° Asphalt 0 ft / 0 m 0 ft / 0 m
22 100 ft / 30 m 5,808 ft / 1,770 m 215.97° 222.73° Asphalt 910 ft / 277 m 0 ft / 0 m
34 75 ft / 23 m 3,320 ft / 1,012 m 334.23° 340.99° Asphalt 0 ft / 0 m 233 ft / 71 m

Map

Weather


0- 5 10 15 20 25 30 35+ Temperature / ° C

Clouds and Precipitation
Forecast for 2017-12-18 00:00 UTC. Updated 36 minutes ago

Ground ~20,000 ft ~40,000 ft Winds

METAR

KSSI 172053Z AUTO 13004KT 10SM CLR 18/09 A3022 RMK AO2 SLP234 T01780089 55007

TAF

KSSI 171740Z 1718/1818 09006KT P6SM FEW070 BKN200 FM172300 12004KT P6SM FEW030 BKN080 FM180400 17004KT P6SM SCT022 BKN060 FM181400 22005KT P6SM SCT015 BKN035

Frequencies

Recorded 118.52 MHz ASOS
Unicom 123.05 MHz CTAF/UNICOM
Warning: Do not use this data for real-world aviation or navigation. No guarantee of current accuracy is given.